Time;durP1;ratioP1;P1;durP2;ratioP2;P2;SDS_P1;SDS_P2;PMS_P1;PMS_P2;Temp;Humidity;BMP_temperature;BMP_pressure;BME280_temperature;BME280_humidity;BME280_pressure;Samples;Min_cycle;Max_cycle;Signal;HPM_P1;HPM_P2
2022/02/22 00:02:17;;;;;;;6.32;1.10;;;;;;;;;;5017797;28;20049;-59
2022/02/22 00:05:11;;;;;;;3.67;1.02;;;;;;;;;;5068421;28;20033;-57
2022/02/22 00:07:50;;;;;;;2.63;1.05;;;;;;;;;;4972611;28;20405;-59
2022/02/22 00:10:33;;;;;;;2.25;1.05;;;;;;;;;;5049495;28;20161;-58
2022/02/22 00:13:42;;;;;;;2.15;0.88;;;;;;;;;;5067862;28;20033;-58
2022/02/22 00:16:18;;;;;;;1.48;0.68;;;;;;;;;;5066507;28;20051;-58
2022/02/22 00:19:00;;;;;;;2.70;1.20;;;;;;;;;;5068572;28;20060;-59
2022/02/22 00:21:50;;;;;;;;;;;;;;;;;;;;;
2022/02/22 00:24:26;;;;;;;1.80;0.55;;;;;;;;;;5072117;28;20074;-58
2022/02/22 00:30:25;;;;;;;;;;;;;;;;;;;;;
2022/02/22 00:33:01;;;;;;;2.38;1.10;;;;;;;;;;5103624;28;20024;-57
2022/02/22 00:35:33;;;;;;;5.47;1.00;;;;;;;;;;5109879;28;20035;-59
2022/02/22 00:38:11;;;;;;;1.63;1.17;;;;;;;;;;5110313;28;20141;-58
2022/02/22 00:40:50;;;;;;;2.33;1.27;;;;;;;;;;5110182;28;20076;-58
2022/02/22 00:49:43;;;;;;;1.73;0.60;;;;;;;;;;5064370;28;20043;-58
2022/02/22 00:52:32;;;;;;;3.65;1.30;;;;;;;;;;5109626;28;20024;-58
2022/02/22 00:55:12;;;;;;;1.48;0.50;;;;;;;;;;5108567;28;20056;-59
2022/02/22 00:58:02;;;;;;;6.83;1.27;;;;;;;;;;5104454;28;20051;-58
2022/02/22 01:00:40;;;;;;;2.50;1.17;;;;;;;;;;5071020;28;20032;-58
2022/02/22 01:03:27;;;;;;;4.10;0.93;;;;;;;;;;5090532;28;20119;-58
2022/02/22 01:09:10;;;;;;;3.00;0.75;;;;;;;;;;5109912;28;20050;-59
2022/02/22 01:11:43;;;;;;;1.48;0.73;;;;;;;;;;5109601;28;20024;-58
2022/02/22 01:14:50;;;;;;;2.67;0.93;;;;;;;;;;5107098;28;20060;-58
2022/02/22 01:17:21;;;;;;;4.53;2.25;;;;;;;;;;5080992;28;20059;-59
2022/02/22 01:19:50;;;;;;;;;;;;;;;;;;5109832;28;20020;-58
2022/02/22 01:22:35;;;;;;;7.53;1.45;;;;;;;;;;5108969;28;19911;-58
2022/02/22 01:25:33;;;;;;;6.10;1.10;;;;;;;;;;5109488;28;20446;-58
2022/02/22 01:28:23;;;;;;;1.83;1.08;;;;;;;;;;5106424;28;20036;-58
2022/02/22 01:31:03;;;;;;;2.75;1.05;;;;;;;;;;5109395;28;20043;-58
2022/02/22 01:36:39;;;;;;;2.75;0.70;;;;;;;;;;5091217;28;20094;-58
2022/02/22 01:39:33;;;;;;;6.18;1.02;;;;;;;;;;5109545;28;20020;-59
2022/02/22 01:45:19;;;;;;;2.65;1.48;;;;;;;;;;5108893;28;20039;-57
2022/02/22 01:54:22;;;;;;;2.63;0.63;;;;;;;;;;5041565;28;20037;-58
2022/02/22 01:56:55;;;;;;;4.40;1.00;;;;;;;;;;5042812;28;20053;-58
2022/02/22 01:59:46;;;;;;;1.70;1.10;;;;;;;;;;5030423;28;20037;-58
2022/02/22 02:02:44;;;;;;;6.57;1.85;;;;;;;;;;5071879;28;20108;-58
2022/02/22 02:05:26;;;;;;;3.97;0.77;;;;;;;;;;5064452;28;20047;-57
2022/02/22 02:08:01;;;;;;;4.18;1.27;;;;;;;;;;5088517;28;20025;-58
2022/02/22 02:11:04;;;;;;;2.22;0.95;;;;;;;;;;5088514;28;20049;-58
2022/02/22 02:13:51;;;;;;;;;;;;;;;;;;;;;
2022/02/22 02:16:43;;;;;;;2.85;0.70;;;;;;;;;;5088375;28;20067;-58
2022/02/22 02:25:43;;;;;;;;;;;;;;;;;;;;;
2022/02/22 02:31:23;;;;;;;5.50;0.88;;;;;;;;;;5068346;28;20036;-58
2022/02/22 02:33:52;;;;;;;2.22;1.23;;;;;;;;;;5079393;28;20051;-58
2022/02/22 02:36:45;;;;;;;2.15;0.90;;;;;;;;;;5092087;28;20025;-58
2022/02/22 02:39:38;;;;;;;4.85;1.35;;;;;;;;;;5091729;28;20108;-58
2022/02/22 02:42:24;;;;;;;2.10;0.70;;;;;;;;;;4991521;28;20070;-58
2022/02/22 02:47:59;;;;;;;;;;;;;;;;;;5093080;28;20058;-58
2022/02/22 02:51:03;;;;;;;3.00;1.27;;;;;;;;;;5092242;28;19904;-57
2022/02/22 02:54:01;;;;;;;7.43;1.27;;;;;;;;;;5091948;28;20037;-57
2022/02/22 02:56:27;;;;;;;1.55;0.80;;;;;;;;;;5005571;28;20056;-57
2022/02/22 02:59:07;;;;;;;7.97;1.38;;;;;;;;;;5030725;28;20046;-58
2022/02/22 03:02:04;;;;;;;3.30;1.67;;;;;;;;;;5030132;28;20042;-57
2022/02/22 03:13:45;;;;;;;4.05;1.27;;;;;;;;;;5079872;28;20040;-58
2022/02/22 03:16:24;;;;;;;6.85;1.13;;;;;;;;;;5111882;28;20050;-58
2022/02/22 03:24:59;;;;;;;2.03;0.80;;;;;;;;;;5110544;28;20035;-59
2022/02/22 03:27:30;;;;;;;2.47;0.73;;;;;;;;;;5111691;28;20039;-58
2022/02/22 03:30:04;;;;;;;2.00;1.08;;;;;;;;;;5111368;28;20055;-59
2022/02/22 03:35:55;;;;;;;5.50;1.45;;;;;;;;;;5110260;28;20059;-59
2022/02/22 03:39:03;;;;;;;4.03;1.35;;;;;;;;;;5111132;28;20035;-58
2022/02/22 03:41:43;;;;;;;3.07;1.33;;;;;;;;;;5009128;28;20037;-58
2022/02/22 03:44:42;;;;;;;3.67;0.80;;;;;;;;;;4983723;28;20543;-58
2022/02/22 03:47:14;;;;;;;6.95;1.17;;;;;;;;;;5020787;28;20033;-58
2022/02/22 03:50:09;;;;;;;4.32;1.45;;;;;;;;;;5032439;28;20098;-58
2022/02/22 03:53:09;;;;;;;5.55;1.98;;;;;;;;;;5009377;28;20049;-57
2022/02/22 03:55:36;;;;;;;9.50;1.40;;;;;;;;;;5009641;28;20400;-59
2022/02/22 03:58:36;;;;;;;4.90;1.25;;;;;;;;;;5031306;28;20096;-58
2022/02/22 04:01:16;;;;;;;;;;;;;;;;;;5049181;28;20515;-58
2022/02/22 04:07:06;;;;;;;2.88;0.75;;;;;;;;;;5036052;28;20042;-58
2022/02/22 04:09:46;;;;;;;1.20;0.80;;;;;;;;;;5030970;28;20391;-58
2022/02/22 04:12:51;;;;;;;3.38;1.17;;;;;;;;;;5031909;28;20060;-58
2022/02/22 04:27:52;;;;;;;1.73;0.75;;;;;;;;;;5110472;28;20120;-58
2022/02/22 04:30:25;;;;;;;4.00;1.45;;;;;;;;;;5110050;28;20028;-58
2022/02/22 04:42:30;;;;;;;3.28;1.50;;;;;;;;;;5006950;28;20050;-58
2022/02/22 04:45:22;;;;;;;2.95;1.27;;;;;;;;;;4975074;28;20038;-58
2022/02/22 04:48:02;;;;;;;5.03;1.42;;;;;;;;;;4975200;28;20055;-58
2022/02/22 04:54:06;;;;;;;5.95;1.33;;;;;;;;;;4965233;28;20042;-59
2022/02/22 04:57:26;;;;;;;2.33;0.65;;;;;;;;;;4972087;28;20117;-59
2022/02/22 05:06:14;;;;;;;2.40;1.27;;;;;;;;;;4934556;29;20034;-58
2022/02/22 05:12:00;;;;;;;3.35;1.30;;;;;;;;;;4933541;29;20594;-59
2022/02/22 05:14:40;;;;;;;14.02;2.50;;;;;;;;;;4919586;29;20179;-58
2022/02/22 05:23:51;;;;;;;1.98;1.17;;;;;;;;;;5032496;28;20026;-59
2022/02/22 05:26:34;;;;;;;4.05;1.50;;;;;;;;;;5032090;28;20075;-59
2022/02/22 05:29:51;;;;;;;3.67;1.38;;;;;;;;;;5032797;28;20455;-59
2022/02/22 05:32:54;;;;;;;2.20;1.20;;;;;;;;;;4965576;29;20081;-58
2022/02/22 05:39:03;;;;;;;2.80;1.73;;;;;;;;;;5083315;28;20043;-59
2022/02/22 05:42:04;;;;;;;5.83;1.90;;;;;;;;;;5049566;28;20035;-59
2022/02/22 05:47:17;;;;;;;2.43;1.23;;;;;;;;;;5088687;28;20090;-59
2022/02/22 05:50:05;;;;;;;5.63;1.20;;;;;;;;;;5088959;28;20031;-59
2022/02/22 05:52:58;;;;;;;;;;;;;;;;;;;;;
2022/02/22 05:55:40;;;;;;;1.90;1.10;;;;;;;;;;5068798;28;20064;-59
2022/02/22 05:58:33;;;;;;;3.53;1.13;;;;;;;;;;5098049;28;20036;-59
2022/02/22 06:01:03;;;;;;;9.77;2.13;;;;;;;;;;5108517;28;20054;-59
2022/02/22 06:03:47;;;;;;;9.15;2.47;;;;;;;;;;5090063;28;20032;-59
2022/02/22 06:06:20;;;;;;;4.40;1.60;;;;;;;;;;5046165;28;20495;-59
2022/02/22 06:09:09;;;;;;;;;;;;;;;;;;;;;
2022/02/22 06:12:19;;;;;;;4.73;1.73;;;;;;;;;;5040260;28;20108;-59
2022/02/22 06:24:20;;;;;;;1.63;1.10;;;;;;;;;;4963602;28;20031;-59
2022/02/22 06:27:20;;;;;;;3.13;1.13;;;;;;;;;;4972840;28;20035;-57
2022/02/22 06:30:21;;;;;;;6.23;1.70;;;;;;;;;;4957363;28;20085;-56
2022/02/22 06:35:55;;;;;;;4.17;1.37;;;;;;;;;;4932633;28;20054;-58
2022/02/22 06:42:00;;;;;;;2.45;1.30;;;;;;;;;;5051012;28;20033;-54
2022/02/22 06:48:13;;;;;;;;;;;;;;;;;;;;;
2022/02/22 06:50:45;;;;;;;4.45;2.20;;;;;;;;;;4973379;28;20031;-55
2022/02/22 06:56:53;;;;;;;11.98;4.05;;;;;;;;;;4971964;28;20043;-58
2022/02/22 07:05:35;;;;;;;11.67;2.87;;;;;;;;;;5041626;28;20414;-57
2022/02/22 07:08:12;;;;;;;;;;;;;;;;;;;;;
2022/02/22 07:11:07;;;;;;;6.53;1.70;;;;;;;;;;5049196;28;20040;-57
2022/02/22 07:17:10;;;;;;;9.50;2.67;;;;;;;;;;5112248;28;20108;-57
2022/02/22 07:19:40;;;;;;;3.95;1.77;;;;;;;;;;5112395;28;20503;-57
2022/02/22 07:28:49;;;;;;;;;;;;;;;;;;;;;
2022/02/22 07:31:24;;;;;;;2.45;1.55;;;;;;;;;;5029777;28;20052;-57
2022/02/22 07:34:10;;;;;;;;;;;;;;;;;;;;;
2022/02/22 07:39:40;;;;;;;5.97;2.08;;;;;;;;;;5111678;28;20043;-56
2022/02/22 07:42:37;;;;;;;10.30;4.30;;;;;;;;;;5111600;28;20053;-56
2022/02/22 07:45:39;;;;;;;3.08;1.73;;;;;;;;;;5111236;28;20074;-58
2022/02/22 07:48:25;;;;;;;20.52;2.05;;;;;;;;;;5111206;28;20061;-58
2022/02/22 07:54:13;;;;;;;5.40;1.67;;;;;;;;;;5028826;28;20037;-57
2022/02/22 08:02:59;;;;;;;7.43;2.33;;;;;;;;;;5110935;28;20111;-55
2022/02/22 08:08:44;;;;;;;7.07;2.38;;;;;;;;;;5110617;28;20057;-56
2022/02/22 08:11:31;;;;;;;4.50;1.70;;;;;;;;;;5102817;28;20079;-58
2022/02/22 08:14:09;;;;;;;;;;;;;;;;;;;;;
2022/02/22 08:17:06;;;;;;;5.05;1.45;;;;;;;;;;5094099;28;20452;-56
2022/02/22 08:19:47;;;;;;;6.63;2.78;;;;;;;;;;5077417;28;20127;-57
2022/02/22 08:22:37;;;;;;;6.72;1.73;;;;;;;;;;5095651;28;20024;-55
2022/02/22 08:25:24;;;;;;;6.32;2.03;;;;;;;;;;5095655;28;20119;-56
2022/02/22 08:31:03;;;;;;;9.35;1.85;;;;;;;;;;5096352;28;20081;-58
2022/02/22 08:34:05;;;;;;;7.93;1.38;;;;;;;;;;5096049;28;20020;-57
2022/02/22 08:36:48;;;;;;;5.85;1.98;;;;;;;;;;5057569;28;20505;-57
2022/02/22 08:39:38;;;;;;;3.60;1.45;;;;;;;;;;5097263;28;20350;-58
2022/02/22 08:42:06;;;;;;;2.92;1.02;;;;;;;;;;5080869;28;20473;-58
2022/02/22 08:44:57;;;;;;;4.03;1.38;;;;;;;;;;5077279;28;20066;-56
2022/02/22 08:47:53;;;;;;;6.03;1.20;;;;;;;;;;5077145;28;20342;-57
2022/02/22 08:51:06;;;;;;;7.57;2.30;;;;;;;;;;5095705;28;20047;-57
2022/02/22 08:54:29;;;;;;;3.42;1.25;;;;;;;;;;5096435;28;20035;-58
2022/02/22 08:57:18;;;;;;;10.32;2.17;;;;;;;;;;4993577;28;20045;-57
2022/02/22 08:59:46;;;;;;;7.45;1.45;;;;;;;;;;4992403;28;20480;-57
2022/02/22 09:02:45;;;;;;;3.78;1.60;;;;;;;;;;5055170;28;20072;-57
2022/02/22 09:05:46;;;;;;;3.58;1.15;;;;;;;;;;5067252;28;20554;-58
2022/02/22 09:08:36;;;;;;;7.55;2.08;;;;;;;;;;5000748;28;20033;-58
2022/02/22 09:11:21;;;;;;;6.43;1.88;;;;;;;;;;4996916;28;20027;-57
2022/02/22 09:14:13;;;;;;;2.72;1.00;;;;;;;;;;5007459;28;20037;-57
2022/02/22 09:16:48;;;;;;;3.13;1.95;;;;;;;;;;5039186;28;20040;-57
2022/02/22 09:19:32;;;;;;;6.50;1.92;;;;;;;;;;5062910;28;20155;-58
2022/02/22 09:34:00;;;;;;;5.03;2.80;;;;;;;;;;5006708;28;20073;-57
2022/02/22 09:36:48;;;;;;;;;;;;;;;;;;;;;
2022/02/22 09:39:48;;;;;;;7.85;3.05;;;;;;;;;;5076049;28;20052;-58
2022/02/22 09:42:40;;;;;;;12.27;4.38;;;;;;;;;;5065453;28;20039;-55
2022/02/22 09:45:42;;;;;;;10.23;3.53;;;;;;;;;;5089115;28;20032;-54
2022/02/22 09:51:19;;;;;;;7.45;1.80;;;;;;;;;;5088956;28;20043;-58
2022/02/22 09:56:56;;;;;;;5.10;1.75;;;;;;;;;;5089037;28;20075;-57
2022/02/22 10:03:01;;;;;;;2.20;0.98;;;;;;;;;;5075062;28;20040;-57
2022/02/22 10:09:00;;;;;;;3.85;1.50;;;;;;;;;;5070611;28;20043;-54
2022/02/22 10:14:55;;;;;;;2.20;1.00;;;;;;;;;;5108980;28;20039;-58
2022/02/22 10:23:55;;;;;;;;;;;;;;;;;;;;;
2022/02/22 10:26:50;;;;;;;2.83;1.35;;;;;;;;;;4988746;28;20046;-58
2022/02/22 10:32:27;;;;;;;5.03;1.38;;;;;;;;;;4999931;28;20030;-58
2022/02/22 10:35:18;;;;;;;8.98;1.80;;;;;;;;;;5007797;28;20058;-58
2022/02/22 10:37:58;;;;;;;;;;;;;;;;;;5007759;28;20030;-59
2022/02/22 10:40:43;;;;;;;6.13;1.80;;;;;;;;;;5008994;28;19948;-58
2022/02/22 10:43:25;;;;;;;5.15;1.42;;;;;;;;;;5108545;28;20032;-58
2022/02/22 10:46:10;;;;;;;7.25;1.63;;;;;;;;;;5110690;28;20028;-57
2022/02/22 10:49:13;;;;;;;4.65;1.63;;;;;;;;;;5093290;28;20040;-55
2022/02/22 10:51:53;;;;;;;4.20;1.58;;;;;;;;;;5093594;28;20366;-56
2022/02/22 10:54:51;;;;;;;5.63;1.80;;;;;;;;;;5111388;28;20032;-57
2022/02/22 10:57:23;;;;;;;4.78;2.63;;;;;;;;;;5069767;28;20037;-58
2022/02/22 11:03:08;;;;;;;9.77;1.80;;;;;;;;;;4980993;28;20053;-57
2022/02/22 11:05:38;;;;;;;5.68;3.63;;;;;;;;;;4993899;28;20042;-58
2022/02/22 11:08:04;;;;;;;4.22;1.80;;;;;;;;;;5010260;28;20050;-58
2022/02/22 11:14:22;;;;;;;7.35;2.13;;;;;;;;;;5001646;28;20034;-58
2022/02/22 11:20:26;;;;;;;6.93;2.25;;;;;;;;;;4959455;29;20035;-55
2022/02/22 11:23:11;;;;;;;3.40;1.25;;;;;;;;;;4971707;29;20036;-57
2022/02/22 11:26:06;;;;;;;3.83;1.67;;;;;;;;;;4956830;28;20039;-57
2022/02/22 11:28:59;;;;;;;3.83;1.88;;;;;;;;;;4988511;28;20093;-56
2022/02/22 11:31:47;;;;;;;7.18;1.92;;;;;;;;;;4991596;28;20034;-57
2022/02/22 11:34:38;;;;;;;2.85;1.20;;;;;;;;;;5010273;28;20174;-58
2022/02/22 11:37:27;;;;;;;2.28;1.20;;;;;;;;;;5095738;28;20119;-58
2022/02/22 11:40:12;;;;;;;4.07;2.25;;;;;;;;;;5112007;28;20666;-58
2022/02/22 11:43:13;;;;;;;;;;;;;;;;;;;;;
2022/02/22 11:45:44;;;;;;;8.15;2.30;;;;;;;;;;5111964;28;20051;-57
2022/02/22 11:48:35;;;;;;;9.77;2.35;;;;;;;;;;5111325;28;20028;-57
2022/02/22 11:51:20;;;;;;;3.45;1.20;;;;;;;;;;5111468;28;20032;-58
2022/02/22 11:57:23;;;;;;;3.90;1.05;;;;;;;;;;4988225;28;20055;-58
2022/02/22 12:00:19;;;;;;;2.03;0.95;;;;;;;;;;4978356;28;20051;-58
2022/02/22 12:03:04;;;;;;;5.78;1.58;;;;;;;;;;4982231;28;20046;-58
2022/02/22 12:05:59;;;;;;;6.40;2.05;;;;;;;;;;4989926;28;20034;-55
2022/02/22 12:08:56;;;;;;;;;;;;;;;;;;;;;
2022/02/22 12:11:44;;;;;;;5.07;1.83;;;;;;;;;;4985477;28;20118;-58
2022/02/22 12:17:28;;;;;;;5.40;1.88;;;;;;;;;;5033500;28;20418;-58
2022/02/22 12:32:40;;;;;;;5.55;1.75;;;;;;;;;;5075997;28;20032;-59
2022/02/22 12:35:49;;;;;;;8.55;2.22;;;;;;;;;;5057619;28;20544;-58
2022/02/22 12:38:50;;;;;;;5.03;1.70;;;;;;;;;;4996755;28;20101;-58
2022/02/22 12:41:27;;;;;;;5.20;1.60;;;;;;;;;;4954833;29;20027;-56
2022/02/22 12:50:51;;;;;;;4.05;1.55;;;;;;;;;;4998417;28;20044;-57
2022/02/22 12:53:23;;;;;;;6.95;2.53;;;;;;;;;;5013470;28;20391;-58
2022/02/22 12:59:00;;;;;;;5.95;2.00;;;;;;;;;;5068173;28;20520;-58
2022/02/22 13:02:01;;;;;;;6.57;1.90;;;;;;;;;;5097677;28;20114;-58
2022/02/22 13:08:16;;;;;;;4.10;1.88;;;;;;;;;;4992724;28;20027;-58
2022/02/22 13:10:58;;;;;;;;;;;;;;;;;;;;;
2022/02/22 13:16:37;;;;;;;;;;;;;;;;;;5078847;28;20170;-58
2022/02/22 13:22:04;;;;;;;;;;;;;;;;;;5063223;28;20489;-58
2022/02/22 13:24:41;;;;;;;3.58;1.60;;;;;;;;;;5095170;28;19904;-58
2022/02/22 13:27:35;;;;;;;2.67;1.50;;;;;;;;;;5095423;28;20531;-56
2022/02/22 13:30:29;;;;;;;5.25;1.58;;;;;;;;;;5092957;28;20493;-57
2022/02/22 13:36:48;;;;;;;;;;;;;;;;;;;;;
2022/02/22 13:42:21;;;;;;;7.28;1.50;;;;;;;;;;5069776;28;20114;-58
2022/02/22 13:45:16;;;;;;;5.97;1.77;;;;;;;;;;5094264;28;20359;-56
2022/02/22 13:50:51;;;;;;;7.55;2.55;;;;;;;;;;5080044;28;20036;-57
2022/02/22 13:57:02;;;;;;;9.05;2.05;;;;;;;;;;5068861;28;20075;-58
2022/02/22 13:59:54;;;;;;;2.58;1.15;;;;;;;;;;5092902;28;20052;-57
2022/02/22 14:02:48;;;;;;;8.05;2.13;;;;;;;;;;5093815;28;20439;-57
2022/02/22 14:08:50;;;;;;;8.27;1.80;;;;;;;;;;5060717;28;20385;-57
2022/02/22 14:14:35;;;;;;;9.40;2.45;;;;;;;;;;5032000;28;20510;-53
2022/02/22 14:17:15;;;;;;;6.25;2.33;;;;;;;;;;5031350;28;20514;-58
2022/02/22 14:20:22;;;;;;;7.20;1.80;;;;;;;;;;5055206;28;20039;-58
2022/02/22 14:23:10;;;;;;;5.97;1.95;;;;;;;;;;5095057;28;20052;-58
2022/02/22 14:28:44;;;;;;;6.15;1.75;;;;;;;;;;5098036;28;20492;-57
2022/02/22 14:31:37;;;;;;;;;;;;;;;;;;;;;
2022/02/22 14:34:19;;;;;;;15.05;2.65;;;;;;;;;;5091306;28;20032;-56
2022/02/22 14:37:08;;;;;;;8.50;1.67;;;;;;;;;;5098635;28;20024;-57
2022/02/22 14:45:50;;;;;;;4.28;1.65;;;;;;;;;;5097996;28;20032;-58
2022/02/22 14:48:48;;;;;;;7.55;3.33;;;;;;;;;;5098652;28;20482;-58
2022/02/22 14:55:06;;;;;;;8.35;2.05;;;;;;;;;;4990387;28;20038;-58
2022/02/22 15:04:10;;;;;;;4.15;1.50;;;;;;;;;;4986210;28;20085;-57
2022/02/22 15:06:53;;;;;;;9.85;2.70;;;;;;;;;;4977063;28;20121;-57
2022/02/22 15:09:42;;;;;;;7.60;2.08;;;;;;;;;;5062382;28;20073;-58
2022/02/22 15:22:06;;;;;;;9.00;2.35;;;;;;;;;;5008235;28;20066;-58
2022/02/22 15:30:33;;;;;;;3.30;1.80;;;;;;;;;;4912162;29;20043;-58
2022/02/22 15:33:02;;;;;;;7.90;1.73;;;;;;;;;;4912487;29;20084;-57
2022/02/22 15:35:52;;;;;;;4.93;1.65;;;;;;;;;;4951275;28;20054;-58
2022/02/22 15:38:40;;;;;;;7.15;1.88;;;;;;;;;;4943929;29;20095;-57
2022/02/22 15:41:31;;;;;;;10.13;2.88;;;;;;;;;;4968864;29;20031;-58
2022/02/22 15:44:32;;;;;;;3.67;1.45;;;;;;;;;;4952793;29;20073;-58
2022/02/22 15:47:24;;;;;;;5.93;1.92;;;;;;;;;;4920972;29;20031;-58
2022/02/22 15:50:02;;;;;;;6.85;2.05;;;;;;;;;;5011802;28;20041;-58
2022/02/22 15:52:57;;;;;;;5.60;1.48;;;;;;;;;;5082338;28;20124;-56
2022/02/22 15:55:34;;;;;;;;;;;;;;;;;;;;;
2022/02/22 15:58:25;;;;;;;5.85;2.20;;;;;;;;;;5089245;28;20055;-57
2022/02/22 16:01:00;;;;;;;3.17;1.42;;;;;;;;;;5090137;28;20029;-58
2022/02/22 16:04:05;;;;;;;;;;;;;;;;;;;;;
2022/02/22 16:06:54;;;;;;;7.55;1.85;;;;;;;;;;5109705;28;20063;-55
2022/02/22 16:09:32;;;;;;;6.38;2.17;;;;;;;;;;5030665;28;20057;-57
2022/02/22 16:12:19;;;;;;;5.30;1.73;;;;;;;;;;5041613;28;20036;-57
2022/02/22 16:14:56;;;;;;;5.18;2.40;;;;;;;;;;5046411;28;20080;-57
2022/02/22 16:20:22;;;;;;;6.03;2.85;;;;;;;;;;5034663;28;20030;-58
2022/02/22 16:22:56;;;;;;;8.35;2.88;;;;;;;;;;5020572;28;20408;-58
2022/02/22 16:25:32;;;;;;;8.95;1.83;;;;;;;;;;5021282;28;20030;-58
2022/02/22 16:28:35;;;;;;;9.00;2.33;;;;;;;;;;5037972;28;20091;-58
2022/02/22 16:31:13;;;;;;;4.20;1.75;;;;;;;;;;4997843;28;20029;-58
2022/02/22 16:33:54;;;;;;;5.95;1.80;;;;;;;;;;5027303;28;20048;-58
2022/02/22 16:36:40;;;;;;;5.65;1.95;;;;;;;;;;5046332;28;20462;-57
2022/02/22 16:39:35;;;;;;;9.40;2.28;;;;;;;;;;5052835;28;20108;-58
2022/02/22 16:51:21;;;;;;;11.43;2.45;;;;;;;;;;5026935;28;20065;-58
2022/02/22 16:57:21;;;;;;;10.15;3.00;;;;;;;;;;5063255;28;20089;-58
2022/02/22 17:00:04;;;;;;;8.15;2.80;;;;;;;;;;5108193;28;20025;-58
2022/02/22 17:03:07;;;;;;;11.20;2.78;;;;;;;;;;5107827;28;20062;-59
2022/02/22 17:06:03;;;;;;;12.98;3.20;;;;;;;;;;5107152;28;20056;-57
2022/02/22 17:09:08;;;;;;;8.38;2.92;;;;;;;;;;5070872;28;20028;-57
2022/02/22 17:12:04;;;;;;;14.73;3.08;;;;;;;;;;5101547;28;20099;-58
2022/02/22 17:17:38;;;;;;;11.73;2.60;;;;;;;;;;5107316;28;20036;-58
2022/02/22 17:20:13;;;;;;;5.90;2.35;;;;;;;;;;5084977;28;20024;-57
2022/02/22 17:23:07;;;;;;;8.00;2.53;;;;;;;;;;5106376;28;20028;-58
2022/02/22 17:25:51;;;;;;;7.80;2.90;;;;;;;;;;5083400;28;20040;-58
2022/02/22 17:28:46;;;;;;;9.75;2.70;;;;;;;;;;5107582;28;20115;-58
2022/02/22 17:31:19;;;;;;;8.25;2.03;;;;;;;;;;5106960;28;20096;-58
2022/02/22 17:34:21;;;;;;;8.20;2.47;;;;;;;;;;5106236;28;20040;-58
2022/02/22 17:37:07;;;;;;;5.07;2.05;;;;;;;;;;5005396;28;20070;-58
2022/02/22 17:40:06;;;;;;;;;;;;;;;;;;;;;
2022/02/22 17:45:49;;;;;;;6.80;2.20;;;;;;;;;;5107823;28;20047;-56
2022/02/22 17:51:29;;;;;;;9.57;2.40;;;;;;;;;;5075108;28;20031;-55
2022/02/22 17:54:31;;;;;;;;;;;;;;;;;;;;;
2022/02/22 18:00:25;;;;;;;3.55;2.40;;;;;;;;;;5054427;28;20088;-56
2022/02/22 18:06:02;;;;;;;4.55;1.80;;;;;;;;;;5067295;28;20071;-53
2022/02/22 18:08:57;;;;;;;7.28;1.63;;;;;;;;;;5106832;28;20036;-56
2022/02/22 18:11:47;;;;;;;5.03;1.88;;;;;;;;;;5088745;28;20088;-56
2022/02/22 18:14:34;;;;;;;4.32;1.63;;;;;;;;;;5101662;28;20032;-54
2022/02/22 18:17:06;;;;;;;3.90;1.85;;;;;;;;;;5094251;28;20024;-56
2022/02/22 18:26:13;;;;;;;4.78;2.20;;;;;;;;;;5093913;28;20040;-56
2022/02/22 18:28:57;;;;;;;3.90;1.55;;;;;;;;;;4992313;28;20038;-57
2022/02/22 18:31:37;;;;;;;4.57;1.35;;;;;;;;;;4989578;28;20500;-56
2022/02/22 18:34:12;;;;;;;3.22;1.40;;;;;;;;;;4965807;28;20392;-55
2022/02/22 18:40:08;;;;;;;3.28;1.90;;;;;;;;;;5015098;28;20120;-54
2022/02/22 18:42:40;;;;;;;5.07;1.60;;;;;;;;;;5051722;28;20486;-56
2022/02/22 18:45:35;;;;;;;;;;;;;;;;;;;;;
2022/02/22 18:48:25;;;;;;;5.03;1.60;;;;;;;;;;5045170;28;20029;-57
2022/02/22 18:51:18;;;;;;;2.83;1.20;;;;;;;;;;5051148;28;20022;-57
2022/02/22 18:54:11;;;;;;;2.47;0.90;;;;;;;;;;5034770;28;20126;-56
2022/02/22 18:56:46;;;;;;;7.05;2.20;;;;;;;;;;5050781;28;20078;-56
2022/02/22 18:59:46;;;;;;;;;;;;;;;;;;;;;
2022/02/22 19:02:39;;;;;;;4.47;2.70;;;;;;;;;;4972404;28;20465;-57
2022/02/22 19:05:42;;;;;;;7.22;1.88;;;;;;;;;;5064092;28;20052;-57
2022/02/22 19:08:27;;;;;;;;;;;;;;;;;;;;;
2022/02/22 19:11:11;;;;;;;4.70;1.60;;;;;;;;;;5097749;28;20496;-57
2022/02/22 19:13:55;;;;;;;4.47;1.73;;;;;;;;;;5097429;28;20088;-57
2022/02/22 19:16:37;;;;;;;6.97;1.40;;;;;;;;;;5080408;28;20048;-57
2022/02/22 19:19:39;;;;;;;10.70;1.88;;;;;;;;;;5081278;28;20062;-56
2022/02/22 19:25:32;;;;;;;7.50;1.52;;;;;;;;;;5074394;28;20145;-57
2022/02/22 19:28:21;;;;;;;6.70;2.90;;;;;;;;;;5058139;28;20097;-58
2022/02/22 19:31:25;;;;;;;2.88;1.60;;;;;;;;;;5074228;28;20115;-58
2022/02/22 19:33:55;;;;;;;5.35;2.30;;;;;;;;;;5033440;28;20029;-58
2022/02/22 19:36:46;;;;;;;9.88;1.98;;;;;;;;;;5026770;28;20029;-58
2022/02/22 19:45:23;;;;;;;5.05;1.45;;;;;;;;;;5072040;28;20043;-57
2022/02/22 19:47:52;;;;;;;7.07;1.48;;;;;;;;;;5058982;28;20037;-58
2022/02/22 19:50:27;;;;;;;6.15;2.40;;;;;;;;;;5074704;28;20035;-58
2022/02/22 19:53:06;;;;;;;4.53;2.10;;;;;;;;;;5065853;28;20412;-58
2022/02/22 19:55:42;;;;;;;5.25;1.67;;;;;;;;;;5096612;28;20039;-58
2022/02/22 19:58:35;;;;;;;8.68;2.25;;;;;;;;;;5077024;28;20477;-56
2022/02/22 20:01:13;;;;;;;4.50;1.70;;;;;;;;;;5077940;28;20035;-56
2022/02/22 20:04:10;;;;;;;4.90;1.95;;;;;;;;;;5096877;28;20027;-57
2022/02/22 20:16:18;;;;;;;4.95;1.95;;;;;;;;;;5027342;28;20042;-57
2022/02/22 20:19:16;;;;;;;7.68;2.00;;;;;;;;;;5106074;28;20039;-58
2022/02/22 20:22:02;;;;;;;7.70;2.60;;;;;;;;;;5008972;28;20034;-58
2022/02/22 20:27:30;;;;;;;9.02;2.20;;;;;;;;;;4990055;28;20058;-58
2022/02/22 20:41:56;;;;;;;8.52;1.88;;;;;;;;;;5068639;28;20035;-57
2022/02/22 20:44:55;;;;;;;4.95;1.60;;;;;;;;;;5052328;28;20064;-58
2022/02/22 20:47:27;;;;;;;14.40;2.03;;;;;;;;;;5048059;28;20037;-57
2022/02/22 20:53:36;;;;;;;6.88;2.60;;;;;;;;;;5057419;28;20029;-58
2022/02/22 20:56:24;;;;;;;10.40;1.63;;;;;;;;;;4981691;28;20038;-57
2022/02/22 21:07:41;;;;;;;10.05;2.65;;;;;;;;;;5098972;28;20048;-57
2022/02/22 21:10:50;;;;;;;;;;;;;;;;;;;;;
2022/02/22 21:13:39;;;;;;;11.15;2.60;;;;;;;;;;5097020;28;20183;-59
2022/02/22 21:16:27;;;;;;;5.50;1.85;;;;;;;;;;5077750;28;20028;-56
2022/02/22 21:19:34;;;;;;;10.65;2.63;;;;;;;;;;5095501;28;20465;-57
2022/02/22 21:22:21;;;;;;;8.48;1.90;;;;;;;;;;5086685;28;20373;-57
2022/02/22 21:31:11;;;;;;;3.15;1.33;;;;;;;;;;5094818;28;20027;-55
2022/02/22 21:33:47;;;;;;;7.95;2.13;;;;;;;;;;5094797;28;20024;-54
2022/02/22 21:39:50;;;;;;;;;;;;;;;;;;;;;
2022/02/22 21:46:03;;;;;;;5.63;1.83;;;;;;;;;;5072949;28;20135;-57
2022/02/22 21:48:38;;;;;;;3.10;1.23;;;;;;;;;;4992871;28;20594;-58
2022/02/22 21:51:31;;;;;;;2.78;1.23;;;;;;;;;;4995604;28;20037;-57
2022/02/22 22:00:09;;;;;;;;;;;;;;;;;;;;;
2022/02/22 22:03:03;;;;;;;2.08;1.00;;;;;;;;;;5086234;28;20056;-55
2022/02/22 22:09:14;;;;;;;6.78;2.17;;;;;;;;;;5089608;28;20043;-57
2022/02/22 22:12:04;;;;;;;2.40;1.15;;;;;;;;;;5071779;28;20063;-58
2022/02/22 22:14:36;;;;;;;3.97;1.20;;;;;;;;;;5089193;28;20100;-57
2022/02/22 22:17:13;;;;;;;2.38;1.17;;;;;;;;;;5089232;28;20025;-58
2022/02/22 22:22:43;;;;;;;1.85;0.95;;;;;;;;;;5089562;28;20052;-57
2022/02/22 22:28:28;;;;;;;5.97;1.10;;;;;;;;;;5007094;28;20035;-58
2022/02/22 22:34:22;;;;;;;4.43;1.02;;;;;;;;;;5006796;28;20037;-57
2022/02/22 22:43:39;;;;;;;1.48;0.55;;;;;;;;;;4950535;29;20072;-58
2022/02/22 22:46:23;;;;;;;1.30;0.52;;;;;;;;;;4953227;29;20102;-58
2022/02/22 22:49:08;;;;;;;2.67;1.25;;;;;;;;;;4952846;29;20075;-58
2022/02/22 22:52:03;;;;;;;2.00;0.88;;;;;;;;;;4950802;28;20041;-57
2022/02/22 22:55:00;;;;;;;;;;;;;;;;;;;;;
2022/02/22 22:57:48;;;;;;;2.22;0.70;;;;;;;;;;5009129;28;20038;-57
2022/02/22 23:00:42;;;;;;;4.28;1.13;;;;;;;;;;5011180;28;20022;-58
2022/02/22 23:03:24;;;;;;;3.13;0.95;;;;;;;;;;4994447;28;20038;-57
2022/02/22 23:15:08;;;;;;;4.55;0.70;;;;;;;;;;5025639;28;20040;-58
2022/02/22 23:17:56;;;;;;;1.70;0.73;;;;;;;;;;5112141;28;20028;-57
2022/02/22 23:23:24;;;;;;;1.42;0.73;;;;;;;;;;5097891;28;20087;-58
2022/02/22 23:26:00;;;;;;;1.50;0.57;;;;;;;;;;5112402;28;20024;-56
2022/02/22 23:38:24;;;;;;;2.30;0.70;;;;;;;;;;5044839;28;20040;-57
2022/02/22 23:40:53;;;;;;;;;;;;;;;;;;5050191;28;20192;-58
2022/02/22 23:44:10;;;;;;;3.25;0.40;;;;;;;;;;5049391;28;19905;-57
2022/02/22 23:47:01;;;;;;;0.85;0.32;;;;;;;;;;5032067;28;20066;-58
2022/02/22 23:49:28;;;;;;;0.63;0.30;;;;;;;;;;5111464;28;20030;-57
2022/02/22 23:54:52;;;;;;;3.45;0.77;;;;;;;;;;5063062;28;20036;-57
2022/02/22 23:57:37;;;;;;;2.05;0.70;;;;;;;;;;5111133;28;20044;-57
